createdAt,value
2023-05-11T00:03:20.115Z,5.72
2023-05-11T00:08:23.518Z,6.93
2023-05-11T00:13:28.161Z,6.55
2023-05-11T00:18:31.487Z,6.23
2023-05-11T00:23:34.862Z,6.15
2023-05-11T00:28:39.414Z,6.35
2023-05-11T00:33:43.186Z,6.68
2023-05-11T00:38:47.040Z,5.78
2023-05-11T00:43:52.301Z,6.07
2023-05-11T00:48:56.454Z,6.18
2023-05-11T00:54:01.179Z,5.40
2023-05-11T00:59:06.207Z,6.67
2023-05-11T01:04:10.099Z,5.55
2023-05-11T01:09:22.330Z,6.00
2023-05-11T01:14:36.001Z,6.50
2023-05-11T01:19:44.971Z,6.60
2023-05-11T01:25:03.890Z,6.53
2023-05-11T01:30:36.828Z,5.97
2023-05-11T01:35:47.409Z,6.63
2023-05-11T01:40:55.790Z,6.60
2023-05-11T01:46:03.388Z,7.00
2023-05-11T01:51:07.401Z,6.93
2023-05-11T01:56:12.835Z,7.00
2023-05-11T02:01:19.695Z,6.43
2023-05-11T02:06:25.272Z,6.57
2023-05-11T02:11:30.631Z,7.05
2023-05-11T02:21:42.410Z,6.75
2023-05-11T02:26:46.203Z,7.20
2023-05-11T02:31:54.417Z,8.48
2023-05-11T02:37:02.478Z,9.25
2023-05-11T02:42:15.058Z,9.90
2023-05-11T02:47:22.357Z,9.48
2023-05-11T02:52:28.318Z,8.68
2023-05-11T02:58:07.520Z,10.68
2023-05-11T03:03:15.437Z,9.43
2023-05-11T03:13:25.458Z,8.20
2023-05-11T03:18:34.312Z,9.77
2023-05-11T03:23:39.065Z,10.77
2023-05-11T03:28:46.436Z,9.73
2023-05-11T03:33:51.565Z,10.90
2023-05-11T03:38:57.979Z,10.00
2023-05-11T03:44:08.130Z,9.60
2023-05-11T03:49:15.442Z,10.10
2023-05-11T03:54:19.743Z,10.85
2023-05-11T03:59:24.082Z,11.23
2023-05-11T04:04:31.909Z,9.57
2023-05-11T04:09:36.599Z,8.85
2023-05-11T04:14:40.285Z,8.80
2023-05-11T04:19:45.303Z,8.57
2023-05-11T04:24:48.955Z,8.05
2023-05-11T04:29:52.694Z,7.90
2023-05-11T04:34:57.656Z,8.77
2023-05-11T04:40:04.664Z,8.57
2023-05-11T04:45:14.330Z,8.82
2023-05-11T04:50:20.224Z,8.50
2023-05-11T04:55:24.136Z,8.50
2023-05-11T05:00:29.446Z,7.97
2023-05-11T05:05:34.800Z,8.45
2023-05-11T05:10:38.096Z,8.75
2023-05-11T05:15:41.950Z,9.23
2023-05-11T05:20:46.946Z,10.27
2023-05-11T05:25:50.666Z,8.90
2023-05-11T05:30:54.427Z,7.95
2023-05-11T05:35:59.834Z,8.18
2023-05-11T05:41:03.955Z,8.63
2023-05-11T05:46:11.817Z,8.63
2023-05-11T05:51:16.969Z,8.52
2023-05-11T05:56:22.246Z,8.05
2023-05-11T06:06:30.790Z,6.45
2023-05-11T06:11:34.459Z,6.85
2023-05-11T06:16:38.221Z,6.07
2023-05-11T06:21:45.504Z,6.30
2023-05-11T06:26:50.589Z,6.63
2023-05-11T06:31:56.502Z,6.78
2023-05-11T06:37:02.954Z,6.65
2023-05-11T06:42:07.014Z,6.18
2023-05-11T06:47:11.993Z,7.38
2023-05-11T06:52:17.504Z,6.88
2023-05-11T06:57:21.134Z,6.80
2023-05-11T07:02:24.754Z,7.20
2023-05-11T07:07:29.841Z,7.32
2023-05-11T07:17:36.851Z,7.25
2023-05-11T07:22:41.828Z,8.48
2023-05-11T07:27:45.542Z,7.63
2023-05-11T07:32:49.165Z,7.72
2023-05-11T07:37:53.847Z,7.15
2023-05-11T07:42:57.440Z,7.80
2023-05-11T07:48:01.075Z,7.47
2023-05-11T07:53:06.178Z,6.35
2023-05-11T08:03:13.475Z,6.85
2023-05-11T08:08:18.479Z,6.68
2023-05-11T08:18:25.561Z,5.55
2023-05-11T08:23:30.332Z,5.53
2023-05-11T08:28:34.259Z,6.05
2023-05-11T08:33:38.846Z,5.35
2023-05-11T08:38:44.106Z,4.93
2023-05-11T08:48:51.781Z,5.57
2023-05-11T08:53:59.185Z,6.57
2023-05-11T08:59:05.429Z,5.93
2023-05-11T09:04:09.605Z,5.30
2023-05-11T09:09:14.558Z,6.70
2023-05-11T09:19:22.243Z,4.68
2023-05-11T09:24:27.282Z,4.07
2023-05-11T09:29:30.936Z,3.70
2023-05-11T09:34:34.528Z,3.63
2023-05-11T09:39:44.738Z,3.75
2023-05-11T09:45:02.241Z,4.30
2023-05-11T09:50:18.633Z,3.92
2023-05-11T09:55:30.673Z,3.60
2023-05-11T10:00:34.372Z,3.50
2023-05-11T10:05:38.523Z,3.00
2023-05-11T10:10:43.430Z,3.23
2023-05-11T10:20:51.092Z,4.72
2023-05-11T10:25:56.698Z,4.10
2023-05-11T10:31:00.899Z,4.30
2023-05-11T10:36:05.313Z,5.00
2023-05-11T10:41:31.295Z,4.82
2023-05-11T10:46:47.873Z,4.57
2023-05-11T10:52:15.083Z,3.80
2023-05-11T10:57:49.314Z,4.32
2023-05-11T11:02:52.933Z,3.92
2023-05-11T11:08:01.073Z,4.70
2023-05-11T11:13:08.235Z,5.53
2023-05-11T11:18:22.223Z,4.75
2023-05-11T11:23:50.518Z,4.63
2023-05-11T11:29:13.769Z,4.45
2023-05-11T11:34:44.097Z,3.72
2023-05-11T11:40:13.999Z,3.58
2023-05-11T11:45:33.297Z,2.92
2023-05-11T11:50:36.703Z,3.65
2023-05-11T11:55:51.185Z,2.90
2023-05-11T12:00:58.010Z,3.45
2023-05-11T12:06:02.907Z,2.85
2023-05-11T12:11:07.494Z,3.10
2023-05-11T12:16:13.321Z,3.45
2023-05-11T12:21:20.983Z,4.00
2023-05-11T12:26:26.474Z,2.97
2023-05-11T12:31:36.530Z,3.05
2023-05-11T12:36:40.747Z,2.90
2023-05-11T12:41:45.194Z,3.35
2023-05-11T12:46:50.890Z,3.10
2023-05-11T12:52:04.025Z,3.45
2023-05-11T12:57:08.802Z,3.05
2023-05-11T13:02:17.511Z,3.33
2023-05-11T13:07:27.047Z,3.15
2023-05-11T13:12:32.413Z,3.13
2023-05-11T13:17:39.458Z,4.13
2023-05-11T13:22:42.786Z,2.97
2023-05-11T13:27:46.209Z,3.50
2023-05-11T13:32:51.266Z,2.70
2023-05-11T13:37:54.961Z,3.05
2023-05-11T13:42:58.434Z,2.72
2023-05-11T13:48:03.668Z,3.08
2023-05-11T13:53:07.264Z,2.83
2023-05-11T13:58:11.533Z,2.67
2023-05-11T14:03:16.717Z,3.00
2023-05-11T14:08:20.728Z,3.45
2023-05-11T14:13:25.399Z,3.60
2023-05-11T14:18:30.340Z,3.83
2023-05-11T14:23:33.725Z,3.47
2023-05-11T14:28:36.919Z,3.00
2023-05-11T14:33:41.559Z,2.75
2023-05-11T14:38:46.011Z,3.00
2023-05-11T14:43:49.557Z,2.63
2023-05-11T14:48:55.012Z,3.42
2023-05-11T14:53:58.286Z,2.97
2023-05-11T14:59:01.594Z,3.15
2023-05-11T15:04:06.474Z,2.72
2023-05-11T15:14:13.002Z,2.65
2023-05-11T15:19:18.148Z,2.50
2023-05-11T15:24:21.526Z,1.98
2023-05-11T15:29:25.694Z,4.35
2023-05-11T15:34:31.193Z,2.00
2023-05-11T15:39:35.027Z,2.22
2023-05-11T15:44:38.624Z,2.10
2023-05-11T15:49:43.972Z,2.10
2023-05-11T15:54:47.645Z,2.20
2023-05-11T15:59:51.143Z,2.33
2023-05-11T16:04:56.238Z,2.30
2023-05-11T16:15:02.472Z,2.00
2023-05-11T16:20:08.559Z,2.70
2023-05-11T16:25:11.758Z,2.20
2023-05-11T16:30:24.553Z,1.63
2023-05-11T16:35:30.734Z,1.83
2023-05-11T16:40:34.097Z,2.80
2023-05-11T16:45:37.465Z,2.50
2023-05-11T16:50:42.332Z,1.88
2023-05-11T16:55:45.657Z,2.25
2023-05-11T17:00:48.934Z,3.30
2023-05-11T17:05:53.614Z,3.10
2023-05-11T17:10:56.817Z,2.50
2023-05-11T17:16:00.174Z,2.13
2023-05-11T17:21:05.632Z,2.50
2023-05-11T17:26:10.076Z,2.50
2023-05-11T17:31:17.746Z,2.08
2023-05-11T17:36:22.951Z,2.10
2023-05-11T17:41:26.691Z,1.77
2023-05-11T17:46:30.677Z,1.58
2023-05-11T17:51:35.408Z,1.57
2023-05-11T17:56:39.254Z,1.88
2023-05-11T18:01:43.394Z,1.90
2023-05-11T18:06:48.045Z,1.83
2023-05-11T18:11:51.351Z,2.15
2023-05-11T18:16:54.646Z,2.00
2023-05-11T18:22:00.194Z,3.08
2023-05-11T18:27:03.436Z,2.42
2023-05-11T18:32:07.309Z,2.10
2023-05-11T18:37:11.927Z,2.08
2023-05-11T18:42:15.816Z,2.03
2023-05-11T18:47:19.627Z,1.97
2023-05-11T18:52:24.741Z,2.20
2023-05-11T18:57:28.341Z,2.30
2023-05-11T19:02:31.955Z,2.00
2023-05-11T19:07:36.751Z,1.90
2023-05-11T19:12:40.291Z,2.05
2023-05-11T19:17:44.054Z,2.15
2023-05-11T19:22:48.965Z,1.60
2023-05-11T19:27:52.514Z,1.73
2023-05-11T19:32:56.086Z,1.98
2023-05-11T19:38:00.973Z,1.77
2023-05-11T19:43:04.453Z,1.87
2023-05-11T19:48:08.010Z,2.17
2023-05-11T19:53:13.077Z,2.28
2023-05-11T19:58:16.318Z,1.77
2023-05-11T20:03:19.919Z,2.25
2023-05-11T20:08:24.733Z,2.25
2023-05-11T20:13:29.573Z,2.40
2023-05-11T20:18:33.284Z,1.98
2023-05-11T20:23:39.336Z,2.10
2023-05-11T20:28:42.561Z,2.10
2023-05-11T20:38:55.110Z,2.17
2023-05-11T20:43:58.390Z,2.50
2023-05-11T20:49:01.952Z,2.72
2023-05-11T20:54:07.652Z,1.88
2023-05-11T21:00:03.706Z,2.20
2023-05-11T21:04:36.453Z,2.45
2023-05-11T21:09:41.542Z,2.20
2023-05-11T21:14:45.126Z,2.20
2023-05-11T21:19:48.735Z,2.08
2023-05-11T21:24:54.172Z,2.13
2023-05-11T21:29:57.901Z,2.20
2023-05-11T21:35:01.285Z,3.42
2023-05-11T21:40:07.362Z,2.53
2023-05-11T21:45:11.986Z,2.65
2023-05-11T21:50:15.307Z,1.92
2023-05-11T21:55:20.121Z,2.33
2023-05-11T22:00:24.303Z,2.53
2023-05-11T22:05:27.482Z,2.25
2023-05-11T22:10:32.178Z,2.25
2023-05-11T22:15:35.364Z,2.77
2023-05-11T22:20:38.565Z,2.30
2023-05-11T22:25:43.400Z,2.63
2023-05-11T22:30:47.154Z,2.38
2023-05-11T22:35:51.015Z,2.00
2023-05-11T22:40:55.968Z,2.25
2023-05-11T22:45:59.555Z,2.60
2023-05-11T22:51:06.640Z,2.35
2023-05-11T22:56:11.759Z,2.25
2023-05-11T23:01:15.395Z,2.30
2023-05-11T23:06:19.000Z,2.10
2023-05-11T23:11:24.589Z,2.15
2023-05-11T23:16:27.916Z,2.30
2023-05-11T23:21:31.650Z,2.45
2023-05-11T23:26:37.908Z,2.45
2023-05-11T23:31:41.732Z,2.22
2023-05-11T23:36:45.230Z,2.13
2023-05-11T23:41:50.406Z,2.78
2023-05-11T23:46:53.967Z,2.42
2023-05-11T23:51:57.751Z,2.63
2023-05-11T23:57:02.616Z,2.38
